sensor_id;sensor_type;location;lat;lon;timestamp;pressure;altitude;pressure_sealevel;temperature;humidity
6528;BME280;64597;42.664;23.256;2023-05-24T00:01:17;94399.19;;;13.60;63.81
6528;BME280;64597;42.664;23.256;2023-05-24T00:03:50;94394.75;;;13.71;63.87
6528;BME280;64597;42.664;23.256;2023-05-24T00:06:17;94395.56;;;13.71;63.61
6528;BME280;64597;42.664;23.256;2023-05-24T00:08:42;94397.06;;;13.62;63.27
6528;BME280;64597;42.664;23.256;2023-05-24T00:11:07;94391.78;;;13.62;63.31
6528;BME280;64597;42.664;23.256;2023-05-24T00:13:35;94383.25;;;13.50;63.54
6528;BME280;64597;42.664;23.256;2023-05-24T00:16:00;94400.25;;;13.59;63.66
6528;BME280;64597;42.664;23.256;2023-05-24T00:18:26;94397.34;;;13.61;63.16
6528;BME280;64597;42.664;23.256;2023-05-24T00:20:51;94399.72;;;13.62;63.56
6528;BME280;64597;42.664;23.256;2023-05-24T00:23:17;94388.03;;;13.53;63.85
6528;BME280;64597;42.664;23.256;2023-05-24T00:25:43;94375.25;;;13.45;63.66
6528;BME280;64597;42.664;23.256;2023-05-24T00:28:08;94397.59;;;13.59;63.21
6528;BME280;64597;42.664;23.256;2023-05-24T00:30:34;94391.13;;;13.40;64.15
6528;BME280;64597;42.664;23.256;2023-05-24T00:33:00;94398.25;;;13.40;63.94
6528;BME280;64597;42.664;23.256;2023-05-24T00:35:26;94391.63;;;13.37;64.22
6528;BME280;64597;42.664;23.256;2023-05-24T00:37:51;94388.75;;;13.44;64.13
6528;BME280;64597;42.664;23.256;2023-05-24T00:40:16;94381.34;;;13.41;64.18
6528;BME280;64597;42.664;23.256;2023-05-24T00:42:42;94386.84;;;13.34;64.41
6528;BME280;64597;42.664;23.256;2023-05-24T00:45:08;94381.44;;;13.19;64.49
6528;BME280;64597;42.664;23.256;2023-05-24T00:47:33;94381.44;;;13.19;64.62
6528;BME280;64597;42.664;23.256;2023-05-24T00:49:59;94383.63;;;13.27;64.57
6528;BME280;64597;42.664;23.256;2023-05-24T00:52:25;94386.25;;;13.27;64.73
6528;BME280;64597;42.664;23.256;2023-05-24T00:54:50;94379.06;;;13.17;64.91
6528;BME280;64597;42.664;23.256;2023-05-24T00:57:16;94384.63;;;13.21;64.40
6528;BME280;64597;42.664;23.256;2023-05-24T00:59:43;94393.09;;;13.18;64.56
6528;BME280;64597;42.664;23.256;2023-05-24T01:02:09;94391.53;;;13.22;64.55
6528;BME280;64597;42.664;23.256;2023-05-24T01:04:34;94392.63;;;13.26;64.20
6528;BME280;64597;42.664;23.256;2023-05-24T01:07:19;94390.25;;;13.25;64.00
6528;BME280;64597;42.664;23.256;2023-05-24T01:10:04;94398.88;;;13.15;64.99
6528;BME280;64597;42.664;23.256;2023-05-24T01:15:37;94392.75;;;13.09;65.14
6528;BME280;64597;42.664;23.256;2023-05-24T01:18:27;94398.31;;;13.08;64.68
6528;BME280;64597;42.664;23.256;2023-05-24T01:27:06;94398.75;;;13.00;65.55
6528;BME280;64597;42.664;23.256;2023-05-24T01:29:33;94398.34;;;12.86;65.90
6528;BME280;64597;42.664;23.256;2023-05-24T01:32:00;94401.88;;;12.92;65.59
6528;BME280;64597;42.664;23.256;2023-05-24T01:34:26;94398.34;;;12.86;65.44
6528;BME280;64597;42.664;23.256;2023-05-24T01:36:51;94395.38;;;12.78;65.85
6528;BME280;64597;42.664;23.256;2023-05-24T01:39:17;94392.91;;;12.66;65.98
6528;BME280;64597;42.664;23.256;2023-05-24T01:42:19;94413.34;;;12.76;65.84
6528;BME280;64597;42.664;23.256;2023-05-24T01:49:58;94402.75;;;12.76;65.72
6528;BME280;64597;42.664;23.256;2023-05-24T01:52:27;94385.78;;;12.67;65.89
6528;BME280;64597;42.664;23.256;2023-05-24T01:54:56;94405.94;;;12.78;65.42
6528;BME280;64597;42.664;23.256;2023-05-24T01:57:22;94403.53;;;12.71;65.69
6528;BME280;64597;42.664;23.256;2023-05-24T01:59:49;94387.81;;;12.60;65.72
6528;BME280;64597;42.664;23.256;2023-05-24T02:02:15;94396.69;;;12.75;66.02
6528;BME280;64597;42.664;23.256;2023-05-24T02:04:41;94386.56;;;12.67;66.17
6528;BME280;64597;42.664;23.256;2023-05-24T02:07:06;94385.13;;;12.55;66.60
6528;BME280;64597;42.664;23.256;2023-05-24T02:09:35;94390.41;;;12.55;66.65
6528;BME280;64597;42.664;23.256;2023-05-24T02:12:00;94384.59;;;12.53;66.85
6528;BME280;64597;42.664;23.256;2023-05-24T02:14:26;94383.47;;;12.49;66.77
6528;BME280;64597;42.664;23.256;2023-05-24T02:16:52;94377.13;;;12.50;66.80
6528;BME280;64597;42.664;23.256;2023-05-24T02:19:22;94382.69;;;12.48;66.55
6528;BME280;64597;42.664;23.256;2023-05-24T02:21:48;94373.28;;;12.35;66.53
6528;BME280;64597;42.664;23.256;2023-05-24T02:24:13;94378.75;;;12.51;66.62
6528;BME280;64597;42.664;23.256;2023-05-24T02:26:39;94385.03;;;12.45;66.58
6528;BME280;64597;42.664;23.256;2023-05-24T02:29:04;94382.38;;;12.45;66.77
6528;BME280;64597;42.664;23.256;2023-05-24T02:31:30;94381.88;;;12.48;66.74
6528;BME280;64597;42.664;23.256;2023-05-24T02:33:56;94373.13;;;12.47;66.40
6528;BME280;64597;42.664;23.256;2023-05-24T02:36:23;94373.94;;;12.48;66.51
6528;BME280;64597;42.664;23.256;2023-05-24T02:38:50;94376.84;;;12.46;66.89
6528;BME280;64597;42.664;23.256;2023-05-24T02:41:16;94374.47;;;12.45;66.82
6528;BME280;64597;42.664;23.256;2023-05-24T02:43:46;94365.38;;;12.35;66.86
6528;BME280;64597;42.664;23.256;2023-05-24T02:46:12;94366.66;;;12.33;66.65
6528;BME280;64597;42.664;23.256;2023-05-24T02:48:39;94385.53;;;12.41;66.56
6528;BME280;64597;42.664;23.256;2023-05-24T02:51:05;94381.84;;;12.43;66.47
6528;BME280;64597;42.664;23.256;2023-05-24T02:53:31;94385.81;;;12.45;66.55
6528;BME280;64597;42.664;23.256;2023-05-24T02:55:58;94382.63;;;12.43;66.61
6528;BME280;64597;42.664;23.256;2023-05-24T02:58:24;94323.22;;;11.97;66.67
6528;BME280;64597;42.664;23.256;2023-05-24T03:00:53;94372.66;;;12.23;67.06
6528;BME280;64597;42.664;23.256;2023-05-24T03:03:19;94396.00;;;12.31;67.04
6528;BME280;64597;42.664;23.256;2023-05-24T03:05:44;94397.59;;;12.32;66.83
6528;BME280;64597;42.664;23.256;2023-05-24T03:08:10;94401.03;;;12.33;67.24
6528;BME280;64597;42.664;23.256;2023-05-24T03:10:35;94399.69;;;12.30;67.33
6528;BME280;64597;42.664;23.256;2023-05-24T03:13:00;94394.59;;;12.24;67.23
6528;BME280;64597;42.664;23.256;2023-05-24T03:15:26;94402.34;;;12.30;66.93
6528;BME280;64597;42.664;23.256;2023-05-24T03:17:51;94405.47;;;12.27;67.39
6528;BME280;64597;42.664;23.256;2023-05-24T03:20:17;94409.34;;;12.20;67.59
6528;BME280;64597;42.664;23.256;2023-05-24T03:22:45;94416.47;;;12.19;67.21
6528;BME280;64597;42.664;23.256;2023-05-24T03:25:10;94382.31;;;12.13;67.39
6528;BME280;64597;42.664;23.256;2023-05-24T03:27:36;94406.75;;;12.25;66.32
6528;BME280;64597;42.664;23.256;2023-05-24T03:30:02;94414.69;;;12.25;66.14
6528;BME280;64597;42.664;23.256;2023-05-24T03:32:27;94400.63;;;12.19;66.03
6528;BME280;64597;42.664;23.256;2023-05-24T03:34:53;94410.75;;;12.27;65.89
6528;BME280;64597;42.664;23.256;2023-05-24T03:37:18;94413.69;;;12.31;65.92
6528;BME280;64597;42.664;23.256;2023-05-24T03:39:44;94417.44;;;12.35;65.50
6528;BME280;64597;42.664;23.256;2023-05-24T03:42:09;94417.97;;;12.37;65.47
6528;BME280;64597;42.664;23.256;2023-05-24T03:44:35;94411.16;;;12.41;65.21
6528;BME280;64597;42.664;23.256;2023-05-24T03:47:00;94409.88;;;12.43;65.37
6528;BME280;64597;42.664;23.256;2023-05-24T03:49:26;94419.44;;;12.50;65.09
6528;BME280;64597;42.664;23.256;2023-05-24T03:51:51;94370.56;;;12.25;65.16
6528;BME280;64597;42.664;23.256;2023-05-24T03:54:17;94393.50;;;12.47;65.32
6528;BME280;64597;42.664;23.256;2023-05-24T03:56:42;94406.28;;;12.55;65.39
6528;BME280;64597;42.664;23.256;2023-05-24T03:59:08;94410.03;;;12.59;65.20
6528;BME280;64597;42.664;23.256;2023-05-24T04:01:33;94414.56;;;12.63;65.58
6528;BME280;64597;42.664;23.256;2023-05-24T04:04:01;94414.06;;;12.66;65.37
6528;BME280;64597;42.664;23.256;2023-05-24T04:06:28;94417.53;;;12.72;65.41
6528;BME280;64597;42.664;23.256;2023-05-24T04:08:55;94422.81;;;12.72;64.74
6528;BME280;64597;42.664;23.256;2023-05-24T04:11:21;94400.00;;;12.61;64.02
6528;BME280;64597;42.664;23.256;2023-05-24T04:13:48;94417.06;;;12.75;63.58
6528;BME280;64597;42.664;23.256;2023-05-24T04:16:14;94416.03;;;12.81;63.07
6528;BME280;64597;42.664;23.256;2023-05-24T04:18:40;94411.03;;;12.84;63.19
6528;BME280;64597;42.664;23.256;2023-05-24T04:21:05;94413.78;;;12.94;62.75
6528;BME280;64597;42.664;23.256;2023-05-24T04:23:31;94409.03;;;12.96;62.01
6528;BME280;64597;42.664;23.256;2023-05-24T04:25:56;94411.56;;;13.08;62.16
6528;BME280;64597;42.664;23.256;2023-05-24T04:28:22;94415.31;;;13.17;62.14
6528;BME280;64597;42.664;23.256;2023-05-24T04:30:48;94384.53;;;13.06;62.37
6528;BME280;64597;42.664;23.256;2023-05-24T04:33:13;94414.38;;;13.33;62.03
6528;BME280;64597;42.664;23.256;2023-05-24T04:35:39;94414.97;;;13.40;61.71
6528;BME280;64597;42.664;23.256;2023-05-24T04:38:06;94422.91;;;13.45;62.21
6528;BME280;64597;42.664;23.256;2023-05-24T04:40:31;94424.38;;;13.63;62.22
6528;BME280;64597;42.664;23.256;2023-05-24T04:42:57;94432.13;;;13.74;62.78
6528;BME280;64597;42.664;23.256;2023-05-24T04:45:23;94438.00;;;13.81;62.73
6528;BME280;64597;42.664;23.256;2023-05-24T04:47:49;94431.13;;;13.85;62.98
6528;BME280;64597;42.664;23.256;2023-05-24T04:50:15;94431.13;;;13.90;62.97
6528;BME280;64597;42.664;23.256;2023-05-24T04:52:40;94445.56;;;14.10;62.94
6528;BME280;64597;42.664;23.256;2023-05-24T04:55:06;94437.34;;;14.11;63.05
6528;BME280;64597;42.664;23.256;2023-05-24T04:57:31;94440.84;;;14.22;62.89
6528;BME280;64597;42.664;23.256;2023-05-24T04:59:57;94442.50;;;14.33;63.11
6528;BME280;64597;42.664;23.256;2023-05-24T05:02:23;94442.78;;;14.41;62.31
6528;BME280;64597;42.664;23.256;2023-05-24T05:04:50;94443.63;;;14.47;61.88
6528;BME280;64597;42.664;23.256;2023-05-24T05:07:16;94400.56;;;14.25;62.30
6528;BME280;64597;42.664;23.256;2023-05-24T05:09:42;94445.25;;;14.68;62.25
6528;BME280;64597;42.664;23.256;2023-05-24T05:12:07;94441.84;;;14.77;61.77
6528;BME280;64597;42.664;23.256;2023-05-24T05:14:33;94441.59;;;14.84;61.41
6528;BME280;64597;42.664;23.256;2023-05-24T05:16:58;94438.41;;;14.92;60.39
6528;BME280;64597;42.664;23.256;2023-05-24T05:19:25;94425.13;;;14.97;60.32
6528;BME280;64597;42.664;23.256;2023-05-24T05:21:50;94454.34;;;15.17;60.24
6528;BME280;64597;42.664;23.256;2023-05-24T05:24:17;94453.56;;;15.27;59.56
6528;BME280;64597;42.664;23.256;2023-05-24T05:26:43;94453.28;;;15.33;59.17
6528;BME280;64597;42.664;23.256;2023-05-24T05:29:08;94453.06;;;15.45;60.01
6528;BME280;64597;42.664;23.256;2023-05-24T05:31:33;94463.13;;;15.58;59.32
6528;BME280;64597;42.664;23.256;2023-05-24T05:33:59;94456.47;;;15.71;59.15
6528;BME280;64597;42.664;23.256;2023-05-24T05:36:24;94463.91;;;15.84;59.23
6528;BME280;64597;42.664;23.256;2023-05-24T05:38:50;94457.50;;;16.00;58.52
6528;BME280;64597;42.664;23.256;2023-05-24T05:41:16;94460.91;;;16.15;58.36
6528;BME280;64597;42.664;23.256;2023-05-24T05:43:42;94452.06;;;16.30;57.67
6528;BME280;64597;42.664;23.256;2023-05-24T05:46:07;94453.59;;;16.46;57.44
6528;BME280;64597;42.664;23.256;2023-05-24T05:48:33;94457.28;;;16.65;57.37
6528;BME280;64597;42.664;23.256;2023-05-24T05:50:58;94454.03;;;16.78;57.46
6528;BME280;64597;42.664;23.256;2023-05-24T05:53:23;94451.16;;;17.08;56.45
6528;BME280;64597;42.664;23.256;2023-05-24T05:55:49;94453.63;;;17.33;56.33
6528;BME280;64597;42.664;23.256;2023-05-24T05:58:15;94446.56;;;17.58;54.74
6528;BME280;64597;42.664;23.256;2023-05-24T06:00:40;94449.47;;;17.85;54.18
6528;BME280;64597;42.664;23.256;2023-05-24T06:03:05;94465.13;;;18.20;53.48
6528;BME280;64597;42.664;23.256;2023-05-24T06:05:31;94448.88;;;18.45;52.46
6528;BME280;64597;42.664;23.256;2023-05-24T06:07:56;94455.19;;;18.73;52.18
6528;BME280;64597;42.664;23.256;2023-05-24T06:10:22;94453.53;;;18.96;52.04
6528;BME280;64597;42.664;23.256;2023-05-24T06:12:47;94470.41;;;19.33;51.13
6528;BME280;64597;42.664;23.256;2023-05-24T06:15:13;94462.03;;;19.72;49.66
6528;BME280;64597;42.664;23.256;2023-05-24T06:17:38;94470.03;;;20.04;47.57
6528;BME280;64597;42.664;23.256;2023-05-24T06:20:06;94466.72;;;20.39;47.83
6528;BME280;64597;42.664;23.256;2023-05-24T06:22:35;94457.19;;;20.74;45.93
6528;BME280;64597;42.664;23.256;2023-05-24T06:25:02;94459.03;;;21.14;46.08
6528;BME280;64597;42.664;23.256;2023-05-24T06:27:28;94454.41;;;21.51;44.52
6528;BME280;64597;42.664;23.256;2023-05-24T06:29:53;94450.72;;;21.82;43.89
6528;BME280;64597;42.664;23.256;2023-05-24T06:32:18;94438.94;;;22.23;61.53
6528;BME280;64597;42.664;23.256;2023-05-24T06:34:44;94454.25;;;23.09;57.31
6528;BME280;64597;42.664;23.256;2023-05-24T06:37:09;94455.09;;;23.52;52.89
6528;BME280;64597;42.664;23.256;2023-05-24T06:39:39;94457.41;;;23.97;50.30
6528;BME280;64597;42.664;23.256;2023-05-24T06:42:04;94452.38;;;24.41;47.96
6528;BME280;64597;42.664;23.256;2023-05-24T06:44:30;94439.75;;;24.71;45.05
6528;BME280;64597;42.664;23.256;2023-05-24T06:46:59;94424.41;;;24.92;43.58
6528;BME280;64597;42.664;23.256;2023-05-24T06:49:24;94447.94;;;25.33;41.71
6528;BME280;64597;42.664;23.256;2023-05-24T06:51:50;94442.16;;;25.64;40.39
6528;BME280;64597;42.664;23.256;2023-05-24T06:54:15;94445.28;;;25.86;39.92
6528;BME280;64597;42.664;23.256;2023-05-24T06:56:41;94436.69;;;26.05;40.37
6528;BME280;64597;42.664;23.256;2023-05-24T06:59:06;94442.75;;;26.23;40.83
6528;BME280;64597;42.664;23.256;2023-05-24T07:01:32;94405.22;;;26.21;37.57
6528;BME280;64597;42.664;23.256;2023-05-24T07:03:58;94443.34;;;26.64;37.15
6528;BME280;64597;42.664;23.256;2023-05-24T07:06:23;94440.44;;;26.81;37.19
6528;BME280;64597;42.664;23.256;2023-05-24T07:08:49;94449.00;;;26.96;37.24
6528;BME280;64597;42.664;23.256;2023-05-24T07:11:14;94440.53;;;26.97;37.10
6528;BME280;64597;42.664;23.256;2023-05-24T07:13:40;94437.03;;;27.21;35.79
6528;BME280;64597;42.664;23.256;2023-05-24T07:16:06;94426.41;;;27.40;35.82
6528;BME280;64597;42.664;23.256;2023-05-24T07:18:31;94427.25;;;27.56;35.90
6528;BME280;64597;42.664;23.256;2023-05-24T07:20:56;94435.00;;;27.69;35.55
6528;BME280;64597;42.664;23.256;2023-05-24T07:23:22;94433.09;;;27.70;36.08
6528;BME280;64597;42.664;23.256;2023-05-24T07:25:48;94440.72;;;27.80;35.89
6528;BME280;64597;42.664;23.256;2023-05-24T07:28:13;94446.25;;;28.11;35.01
6528;BME280;64597;42.664;23.256;2023-05-24T07:30:40;94444.97;;;28.36;34.60
6528;BME280;64597;42.664;23.256;2023-05-24T07:33:05;94453.81;;;28.33;34.52
6528;BME280;64597;42.664;23.256;2023-05-24T07:35:31;94443.84;;;28.37;31.87
6528;BME280;64597;42.664;23.256;2023-05-24T07:37:57;94451.50;;;28.04;33.95
6528;BME280;64597;42.664;23.256;2023-05-24T07:40:23;94449.41;;;28.13;33.74
6528;BME280;64597;42.664;23.256;2023-05-24T07:42:48;94452.25;;;28.32;32.97
6528;BME280;64597;42.664;23.256;2023-05-24T07:45:14;94455.97;;;28.56;33.37
6528;BME280;64597;42.664;23.256;2023-05-24T07:47:39;94455.00;;;28.79;30.87
6528;BME280;64597;42.664;23.256;2023-05-24T07:50:05;94458.31;;;28.73;32.69
6528;BME280;64597;42.664;23.256;2023-05-24T07:52:31;94458.06;;;28.78;31.52
6528;BME280;64597;42.664;23.256;2023-05-24T07:54:56;94441.38;;;29.26;31.43
6528;BME280;64597;42.664;23.256;2023-05-24T07:57:22;94441.16;;;29.69;30.20
6528;BME280;64597;42.664;23.256;2023-05-24T07:59:48;94436.88;;;30.06;28.01
6528;BME280;64597;42.664;23.256;2023-05-24T08:02:13;94431.97;;;30.35;28.01
6528;BME280;64597;42.664;23.256;2023-05-24T08:04:41;94443.84;;;30.46;25.48
6528;BME280;64597;42.664;23.256;2023-05-24T08:07:06;94434.84;;;30.42;26.17
6528;BME280;64597;42.664;23.256;2023-05-24T08:09:32;94421.91;;;30.58;27.89
6528;BME280;64597;42.664;23.256;2023-05-24T08:12:03;94438.53;;;30.98;26.68
6528;BME280;64597;42.664;23.256;2023-05-24T08:14:29;94436.44;;;31.14;25.32
6528;BME280;64597;42.664;23.256;2023-05-24T08:16:55;94432.88;;;31.10;24.98
6528;BME280;64597;42.664;23.256;2023-05-24T08:19:20;94427.84;;;31.12;25.59
6528;BME280;64597;42.664;23.256;2023-05-24T08:21:46;94429.09;;;31.44;25.28
6528;BME280;64597;42.664;23.256;2023-05-24T08:24:11;94423.22;;;31.68;23.05
6528;BME280;64597;42.664;23.256;2023-05-24T08:26:37;94436.22;;;31.82;21.95
6528;BME280;64597;42.664;23.256;2023-05-24T08:29:03;94430.44;;;31.87;22.28
6528;BME280;64597;42.664;23.256;2023-05-24T08:31:29;94429.97;;;31.82;20.93
6528;BME280;64597;42.664;23.256;2023-05-24T08:33:54;94417.06;;;32.08;20.66
6528;BME280;64597;42.664;23.256;2023-05-24T08:36:21;94429.16;;;32.44;20.79
6528;BME280;64597;42.664;23.256;2023-05-24T08:38:47;94425.75;;;32.54;20.58
6528;BME280;64597;42.664;23.256;2023-05-24T08:41:12;94392.91;;;31.77;22.20
6528;BME280;64597;42.664;23.256;2023-05-24T08:43:38;94428.00;;;31.79;22.88
6528;BME280;64597;42.664;23.256;2023-05-24T08:46:04;94432.66;;;31.78;22.37
6528;BME280;64597;42.664;23.256;2023-05-24T08:48:31;94433.66;;;31.93;22.56
6528;BME280;64597;42.664;23.256;2023-05-24T08:50:57;94423.06;;;32.21;21.40
6528;BME280;64597;42.664;23.256;2023-05-24T08:53:23;94430.00;;;32.48;21.19
6528;BME280;64597;42.664;23.256;2023-05-24T08:55:50;94429.59;;;32.46;20.92
6528;BME280;64597;42.664;23.256;2023-05-24T08:58:20;94412.94;;;32.62;19.92
6528;BME280;64597;42.664;23.256;2023-05-24T09:00:46;94423.09;;;32.61;21.45
6528;BME280;64597;42.664;23.256;2023-05-24T09:03:11;94421.50;;;32.20;20.37
6528;BME280;64597;42.664;23.256;2023-05-24T09:05:38;94426.59;;;31.92;20.55
6528;BME280;64597;42.664;23.256;2023-05-24T09:08:05;94423.03;;;31.88;20.84
6528;BME280;64597;42.664;23.256;2023-05-24T09:10:33;94407.84;;;31.87;20.50
6528;BME280;64597;42.664;23.256;2023-05-24T09:13:00;94420.16;;;32.40;21.09
6528;BME280;64597;42.664;23.256;2023-05-24T09:15:26;94421.72;;;32.44;19.50
6528;BME280;64597;42.664;23.256;2023-05-24T09:17:51;94424.03;;;32.39;20.27
6528;BME280;64597;42.664;23.256;2023-05-24T09:20:17;94416.47;;;32.62;19.77
6528;BME280;64597;42.664;23.256;2023-05-24T09:22:44;94410.25;;;32.65;22.72
6528;BME280;64597;42.664;23.256;2023-05-24T09:25:13;94415.50;;;32.44;22.43
6528;BME280;64597;42.664;23.256;2023-05-24T09:27:38;94421.66;;;32.34;21.63
6528;BME280;64597;42.664;23.256;2023-05-24T09:30:09;94414.50;;;32.22;20.43
6528;BME280;64597;42.664;23.256;2023-05-24T09:32:34;94411.81;;;32.26;21.43
6528;BME280;64597;42.664;23.256;2023-05-24T09:35:00;94410.59;;;31.90;19.50
6528;BME280;64597;42.664;23.256;2023-05-24T09:37:26;94393.44;;;31.90;19.63
6528;BME280;64597;42.664;23.256;2023-05-24T09:39:53;94414.97;;;31.95;19.65
6528;BME280;64597;42.664;23.256;2023-05-24T09:42:21;94410.41;;;32.06;19.56
6528;BME280;64597;42.664;23.256;2023-05-24T09:45:06;94419.28;;;32.32;19.68
6528;BME280;64597;42.664;23.256;2023-05-24T09:47:40;94407.94;;;31.94;19.17
6528;BME280;64597;42.664;23.256;2023-05-24T09:50:12;94412.75;;;31.44;19.22
6528;BME280;64597;42.664;23.256;2023-05-24T09:52:39;94403.72;;;31.66;19.39
6528;BME280;64597;42.664;23.256;2023-05-24T09:55:17;94400.00;;;31.85;18.99
6528;BME280;64597;42.664;23.256;2023-05-24T09:57:48;94406.38;;;31.93;18.97
6528;BME280;64597;42.664;23.256;2023-05-24T10:00:15;94407.09;;;32.23;19.54
6528;BME280;64597;42.664;23.256;2023-05-24T10:02:59;94406.66;;;31.88;18.23
6528;BME280;64597;42.664;23.256;2023-05-24T10:05:25;94405.44;;;31.82;18.31
6528;BME280;64597;42.664;23.256;2023-05-24T10:07:51;94383.81;;;31.36;19.37
6528;BME280;64597;42.664;23.256;2023-05-24T10:10:17;94402.88;;;31.62;19.51
6528;BME280;64597;42.664;23.256;2023-05-24T10:12:43;94390.38;;;31.61;18.71
6528;BME280;64597;42.664;23.256;2023-05-24T10:15:10;94394.88;;;31.47;19.21
6528;BME280;64597;42.664;23.256;2023-05-24T10:17:36;94374.13;;;31.39;18.60
6528;BME280;64597;42.664;23.256;2023-05-24T10:20:02;94379.09;;;31.33;18.77
6528;BME280;64597;42.664;23.256;2023-05-24T10:22:29;94389.91;;;31.26;19.36
6528;BME280;64597;42.664;23.256;2023-05-24T10:24:56;94367.41;;;31.03;19.13
6528;BME280;64597;42.664;23.256;2023-05-24T10:27:24;94388.28;;;31.48;19.96
6528;BME280;64597;42.664;23.256;2023-05-24T10:30:00;94390.00;;;31.63;18.75
6528;BME280;64597;42.664;23.256;2023-05-24T10:32:32;94366.09;;;31.49;19.57
6528;BME280;64597;42.664;23.256;2023-05-24T10:34:59;94388.63;;;31.46;20.15
6528;BME280;64597;42.664;23.256;2023-05-24T10:37:25;94377.00;;;31.49;19.04
6528;BME280;64597;42.664;23.256;2023-05-24T10:39:51;94353.69;;;31.52;19.57
6528;BME280;64597;42.664;23.256;2023-05-24T10:42:17;94358.75;;;31.87;19.40
6528;BME280;64597;42.664;23.256;2023-05-24T10:44:43;94361.63;;;31.67;18.75
6528;BME280;64597;42.664;23.256;2023-05-24T10:47:13;94369.34;;;31.58;19.52
6528;BME280;64597;42.664;23.256;2023-05-24T10:49:56;94364.56;;;31.52;18.91
6528;BME280;64597;42.664;23.256;2023-05-24T10:52:35;94348.03;;;31.12;19.48
6528;BME280;64597;42.664;23.256;2023-05-24T10:55:05;94353.00;;;31.03;19.65
6528;BME280;64597;42.664;23.256;2023-05-24T10:57:32;94356.16;;;30.56;19.55
6528;BME280;64597;42.664;23.256;2023-05-24T11:03:03;94342.63;;;30.37;20.00
6528;BME280;64597;42.664;23.256;2023-05-24T11:08:13;94342.34;;;30.23;19.18
6528;BME280;64597;42.664;23.256;2023-05-24T11:10:39;94349.06;;;30.29;20.08
6528;BME280;64597;42.664;23.256;2023-05-24T11:13:08;94347.34;;;30.40;21.26
6528;BME280;64597;42.664;23.256;2023-05-24T11:15:35;94346.19;;;30.41;20.49
6528;BME280;64597;42.664;23.256;2023-05-24T11:20:41;94337.88;;;29.88;20.56
6528;BME280;64597;42.664;23.256;2023-05-24T11:23:08;94346.69;;;30.04;21.58
6528;BME280;64597;42.664;23.256;2023-05-24T11:25:34;94331.19;;;30.05;20.80
6528;BME280;64597;42.664;23.256;2023-05-24T11:28:02;94336.88;;;29.77;21.04
6528;BME280;64597;42.664;23.256;2023-05-24T11:30:29;94331.81;;;29.76;21.21
6528;BME280;64597;42.664;23.256;2023-05-24T11:32:57;94339.44;;;29.70;21.34
6528;BME280;64597;42.664;23.256;2023-05-24T11:35:22;94338.28;;;29.71;20.23
6528;BME280;64597;42.664;23.256;2023-05-24T11:37:52;94338.28;;;29.71;20.79
6528;BME280;64597;42.664;23.256;2023-05-24T11:40:17;94330.88;;;29.49;20.48
6528;BME280;64597;42.664;23.256;2023-05-24T11:42:45;94329.44;;;29.55;20.76
6528;BME280;64597;42.664;23.256;2023-05-24T11:45:11;94322.50;;;29.58;20.59
6528;BME280;64597;42.664;23.256;2023-05-24T11:47:40;94319.69;;;29.92;21.44
6528;BME280;64597;42.664;23.256;2023-05-24T11:50:06;94322.25;;;29.85;20.93
6528;BME280;64597;42.664;23.256;2023-05-24T11:52:31;94309.28;;;29.37;20.96
6528;BME280;64597;42.664;23.256;2023-05-24T11:54:57;94312.00;;;29.37;21.18
6528;BME280;64597;42.664;23.256;2023-05-24T11:57:28;94315.78;;;29.52;22.55
6528;BME280;64597;42.664;23.256;2023-05-24T11:59:54;94314.25;;;29.54;21.20
6528;BME280;64597;42.664;23.256;2023-05-24T12:02:22;94315.75;;;29.71;21.67
6528;BME280;64597;42.664;23.256;2023-05-24T12:04:47;94305.84;;;29.78;20.63
6528;BME280;64597;42.664;23.256;2023-05-24T12:07:13;94307.16;;;29.69;21.16
6528;BME280;64597;42.664;23.256;2023-05-24T12:09:40;94307.59;;;29.71;21.02
6528;BME280;64597;42.664;23.256;2023-05-24T12:12:06;94311.97;;;29.75;20.52
6528;BME280;64597;42.664;23.256;2023-05-24T12:14:32;94311.13;;;29.52;20.64
6528;BME280;64597;42.664;23.256;2023-05-24T12:16:58;94300.06;;;29.22;20.16
6528;BME280;64597;42.664;23.256;2023-05-24T12:19:29;94305.66;;;29.14;20.22
6528;BME280;64597;42.664;23.256;2023-05-24T12:21:58;94296.31;;;29.11;21.11
6528;BME280;64597;42.664;23.256;2023-05-24T12:24:24;94294.25;;;29.24;21.99
6528;BME280;64597;42.664;23.256;2023-05-24T12:26:50;94294.25;;;29.43;23.44
6528;BME280;64597;42.664;23.256;2023-05-24T12:29:16;94286.59;;;29.49;22.68
6528;BME280;64597;42.664;23.256;2023-05-24T12:31:47;94284.97;;;29.44;22.07
6528;BME280;64597;42.664;23.256;2023-05-24T12:34:13;94288.25;;;29.34;21.08
6528;BME280;64597;42.664;23.256;2023-05-24T12:36:39;94283.56;;;29.31;21.92
6528;BME280;64597;42.664;23.256;2023-05-24T12:39:23;94285.53;;;29.34;22.11
6528;BME280;64597;42.664;23.256;2023-05-24T12:41:53;94278.81;;;29.28;20.89
6528;BME280;64597;42.664;23.256;2023-05-24T12:44:28;94285.91;;;29.33;20.96
6528;BME280;64597;42.664;23.256;2023-05-24T12:46:56;94260.25;;;29.11;21.51
6528;BME280;64597;42.664;23.256;2023-05-24T12:49:22;94283.13;;;29.29;21.47
6528;BME280;64597;42.664;23.256;2023-05-24T12:51:49;94276.00;;;29.21;20.61
6528;BME280;64597;42.664;23.256;2023-05-24T12:54:17;94278.38;;;29.07;20.25
6528;BME280;64597;42.664;23.256;2023-05-24T12:56:42;94268.31;;;28.88;20.45
6528;BME280;64597;42.664;23.256;2023-05-24T12:59:07;94277.75;;;28.94;22.41
6528;BME280;64597;42.664;23.256;2023-05-24T13:01:33;94267.38;;;29.00;22.44
6528;BME280;64597;42.664;23.256;2023-05-24T13:03:58;94276.88;;;29.09;21.75
6528;BME280;64597;42.664;23.256;2023-05-24T13:06:24;94255.72;;;28.99;22.28
6528;BME280;64597;42.664;23.256;2023-05-24T13:08:49;94262.78;;;29.04;22.99
6528;BME280;64597;42.664;23.256;2023-05-24T13:11:15;94253.84;;;29.03;23.36
6528;BME280;64597;42.664;23.256;2023-05-24T13:13:40;94256.94;;;29.02;23.47
6528;BME280;64597;42.664;23.256;2023-05-24T13:16:06;94261.50;;;28.98;23.01
6528;BME280;64597;42.664;23.256;2023-05-24T13:18:33;94255.91;;;28.91;22.76
6528;BME280;64597;42.664;23.256;2023-05-24T13:20:59;94260.66;;;28.94;22.49